sensor_id;sensor_type;location;lat;lon;timestamp;temperature;humidity
38237;DHT22;50101;49.438;11.098;2023-12-22T00:02:17;19.00;56.00
38237;DHT22;50101;49.438;11.098;2023-12-22T00:04:44;19.00;56.00
38237;DHT22;50101;49.438;11.098;2023-12-22T00:07:11;19.00;56.00
38237;DHT22;50101;49.438;11.098;2023-12-22T00:09:37;19.00;56.10
38237;DHT22;50101;49.438;11.098;2023-12-22T00:12:04;19.00;56.10
38237;DHT22;50101;49.438;11.098;2023-12-22T00:14:31;19.00;56.10
38237;DHT22;50101;49.438;11.098;2023-12-22T00:16:58;19.00;56.00
38237;DHT22;50101;49.438;11.098;2023-12-22T00:19:25;19.00;56.10
38237;DHT22;50101;49.438;11.098;2023-12-22T00:21:51;19.00;56.00
38237;DHT22;50101;49.438;11.098;2023-12-22T00:24:18;19.00;56.00
38237;DHT22;50101;49.438;11.098;2023-12-22T00:26:45;19.00;56.00
38237;DHT22;50101;49.438;11.098;2023-12-22T00:29:12;18.90;56.00
38237;DHT22;50101;49.438;11.098;2023-12-22T00:31:39;18.90;56.00
38237;DHT22;50101;49.438;11.098;2023-12-22T00:34:05;19.00;56.60
38237;DHT22;50101;49.438;11.098;2023-12-22T00:36:32;19.00;56.60
38237;DHT22;50101;49.438;11.098;2023-12-22T00:38:59;19.00;55.90
38237;DHT22;50101;49.438;11.098;2023-12-22T00:41:26;18.90;55.40
38237;DHT22;50101;49.438;11.098;2023-12-22T00:43:53;19.00;55.90
38237;DHT22;50101;49.438;11.098;2023-12-22T00:46:20;18.90;55.90
38237;DHT22;50101;49.438;11.098;2023-12-22T00:48:47;18.90;55.80
38237;DHT22;50101;49.438;11.098;2023-12-22T00:51:13;18.90;55.30
38237;DHT22;50101;49.438;11.098;2023-12-22T00:53:40;18.90;55.80
38237;DHT22;50101;49.438;11.098;2023-12-22T00:56:07;18.90;55.80
38237;DHT22;50101;49.438;11.098;2023-12-22T00:58:33;18.90;55.80
38237;DHT22;50101;49.438;11.098;2023-12-22T01:01:00;18.90;55.80
38237;DHT22;50101;49.438;11.098;2023-12-22T01:03:27;18.90;55.70
38237;DHT22;50101;49.438;11.098;2023-12-22T01:05:54;18.90;55.80
38237;DHT22;50101;49.438;11.098;2023-12-22T01:08:21;18.90;55.80
38237;DHT22;50101;49.438;11.098;2023-12-22T01:10:47;18.90;55.30
38237;DHT22;50101;49.438;11.098;2023-12-22T01:13:14;18.90;55.80
38237;DHT22;50101;49.438;11.098;2023-12-22T01:15:41;18.90;55.80
38237;DHT22;50101;49.438;11.098;2023-12-22T01:18:11;18.90;55.70
38237;DHT22;50101;49.438;11.098;2023-12-22T01:20:38;18.90;55.70
38237;DHT22;50101;49.438;11.098;2023-12-22T01:23:05;18.90;55.70
38237;DHT22;50101;49.438;11.098;2023-12-22T01:25:31;18.90;55.70
38237;DHT22;50101;49.438;11.098;2023-12-22T01:27:58;18.90;55.70
38237;DHT22;50101;49.438;11.098;2023-12-22T01:30:27;18.80;55.60
38237;DHT22;50101;49.438;11.098;2023-12-22T01:32:54;18.90;55.10
38237;DHT22;50101;49.438;11.098;2023-12-22T01:35:21;18.90;55.70
38237;DHT22;50101;49.438;11.098;2023-12-22T01:37:47;18.80;55.50
38237;DHT22;50101;49.438;11.098;2023-12-22T01:40:16;18.90;55.60
38237;DHT22;50101;49.438;11.098;2023-12-22T01:42:42;18.80;55.50
38237;DHT22;50101;49.438;11.098;2023-12-22T01:45:09;18.80;55.50
38237;DHT22;50101;49.438;11.098;2023-12-22T01:47:37;18.80;55.50
38237;DHT22;50101;49.438;11.098;2023-12-22T01:50:05;18.80;55.50
38237;DHT22;50101;49.438;11.098;2023-12-22T01:52:32;18.80;55.00
38237;DHT22;50101;49.438;11.098;2023-12-22T01:54:59;18.80;55.50
38237;DHT22;50101;49.438;11.098;2023-12-22T01:57:26;18.80;55.50
38237;DHT22;50101;49.438;11.098;2023-12-22T01:59:52;18.80;55.40
38237;DHT22;50101;49.438;11.098;2023-12-22T02:02:19;18.80;55.40
38237;DHT22;50101;49.438;11.098;2023-12-22T02:04:46;18.80;55.40
38237;DHT22;50101;49.438;11.098;2023-12-22T02:07:14;18.80;55.40
38237;DHT22;50101;49.438;11.098;2023-12-22T02:09:40;18.80;55.40
38237;DHT22;50101;49.438;11.098;2023-12-22T02:12:07;18.80;55.40
38237;DHT22;50101;49.438;11.098;2023-12-22T02:14:34;18.80;55.40
38237;DHT22;50101;49.438;11.098;2023-12-22T02:17:15;18.80;55.40
38237;DHT22;50101;49.438;11.098;2023-12-22T02:19:48;18.80;55.40
38237;DHT22;50101;49.438;11.098;2023-12-22T02:22:15;18.70;55.40
38237;DHT22;50101;49.438;11.098;2023-12-22T02:24:42;18.70;55.30
38237;DHT22;50101;49.438;11.098;2023-12-22T02:27:32;18.80;55.30
38237;DHT22;50101;49.438;11.098;2023-12-22T02:30:09;18.70;55.30
38237;DHT22;50101;49.438;11.098;2023-12-22T02:32:42;18.70;54.70
38237;DHT22;50101;49.438;11.098;2023-12-22T02:35:19;18.70;55.20
38237;DHT22;50101;49.438;11.098;2023-12-22T02:37:47;18.70;55.20
38237;DHT22;50101;49.438;11.098;2023-12-22T02:40:15;18.70;55.20
38237;DHT22;50101;49.438;11.098;2023-12-22T02:42:42;18.70;55.30
38237;DHT22;50101;49.438;11.098;2023-12-22T02:45:15;18.70;55.30
38237;DHT22;50101;49.438;11.098;2023-12-22T02:47:42;18.70;55.30
38237;DHT22;50101;49.438;11.098;2023-12-22T02:50:13;18.70;55.30
38237;DHT22;50101;49.438;11.098;2023-12-22T02:52:40;18.70;54.70
38237;DHT22;50101;49.438;11.098;2023-12-22T02:55:07;18.70;55.20
38237;DHT22;50101;49.438;11.098;2023-12-22T02:57:34;18.70;55.20
38237;DHT22;50101;49.438;11.098;2023-12-22T03:00:01;18.70;54.70
38237;DHT22;50101;49.438;11.098;2023-12-22T03:02:29;18.70;54.70
38237;DHT22;50101;49.438;11.098;2023-12-22T03:04:55;18.60;55.10
38237;DHT22;50101;49.438;11.098;2023-12-22T03:07:22;18.70;55.20
38237;DHT22;50101;49.438;11.098;2023-12-22T03:09:49;18.70;55.20
38237;DHT22;50101;49.438;11.098;2023-12-22T03:12:15;18.70;55.20
38237;DHT22;50101;49.438;11.098;2023-12-22T03:14:42;18.70;55.10
38237;DHT22;50101;49.438;11.098;2023-12-22T03:17:09;18.70;55.10
38237;DHT22;50101;49.438;11.098;2023-12-22T03:19:37;18.70;55.10
38237;DHT22;50101;49.438;11.098;2023-12-22T03:22:04;18.70;55.20
38237;DHT22;50101;49.438;11.098;2023-12-22T03:24:31;18.70;55.10
38237;DHT22;50101;49.438;11.098;2023-12-22T03:26:57;18.70;55.20
38237;DHT22;50101;49.438;11.098;2023-12-22T03:29:24;18.70;55.10
38237;DHT22;50101;49.438;11.098;2023-12-22T03:31:51;18.70;55.10
38237;DHT22;50101;49.438;11.098;2023-12-22T03:34:17;18.60;55.10
38237;DHT22;50101;49.438;11.098;2023-12-22T03:36:44;18.60;55.10
38237;DHT22;50101;49.438;11.098;2023-12-22T03:39:15;18.60;55.10
38237;DHT22;50101;49.438;11.098;2023-12-22T03:41:42;18.60;55.00
38237;DHT22;50101;49.438;11.098;2023-12-22T03:44:09;18.60;55.00
38237;DHT22;50101;49.438;11.098;2023-12-22T03:46:36;18.60;54.50
38237;DHT22;50101;49.438;11.098;2023-12-22T03:49:03;18.60;55.10
38237;DHT22;50101;49.438;11.098;2023-12-22T03:51:29;18.60;55.00
38237;DHT22;50101;49.438;11.098;2023-12-22T03:53:56;18.60;55.00
38237;DHT22;50101;49.438;11.098;2023-12-22T03:56:23;18.60;55.00
38237;DHT22;50101;49.438;11.098;2023-12-22T03:58:49;18.60;55.00
38237;DHT22;50101;49.438;11.098;2023-12-22T04:01:16;18.60;54.40
38237;DHT22;50101;49.438;11.098;2023-12-22T04:03:43;18.50;54.90
38237;DHT22;50101;49.438;11.098;2023-12-22T04:06:10;18.50;54.70
38237;DHT22;50101;49.438;11.098;2023-12-22T04:08:36;18.50;54.90
38237;DHT22;50101;49.438;11.098;2023-12-22T04:11:03;18.50;54.80
38237;DHT22;50101;49.438;11.098;2023-12-22T04:13:30;18.50;54.80
38237;DHT22;50101;49.438;11.098;2023-12-22T04:15:56;18.60;54.90
38237;DHT22;50101;49.438;11.098;2023-12-22T04:18:23;18.50;54.70
38237;DHT22;50101;49.438;11.098;2023-12-22T04:20:50;18.50;54.20
38237;DHT22;50101;49.438;11.098;2023-12-22T04:23:20;18.50;54.70
38237;DHT22;50101;49.438;11.098;2023-12-22T04:25:47;18.60;54.80
38237;DHT22;50101;49.438;11.098;2023-12-22T04:28:14;18.60;54.90
38237;DHT22;50101;49.438;11.098;2023-12-22T04:30:40;18.50;54.20
38237;DHT22;50101;49.438;11.098;2023-12-22T04:33:07;18.50;54.70
38237;DHT22;50101;49.438;11.098;2023-12-22T04:35:34;18.50;54.80
38237;DHT22;50101;49.438;11.098;2023-12-22T04:38:01;18.50;54.80
38237;DHT22;50101;49.438;11.098;2023-12-22T04:40:27;18.50;54.70
38237;DHT22;50101;49.438;11.098;2023-12-22T04:42:54;18.50;54.60
38237;DHT22;50101;49.438;11.098;2023-12-22T04:45:21;18.50;54.60
38237;DHT22;50101;49.438;11.098;2023-12-22T04:47:48;18.50;54.60
38237;DHT22;50101;49.438;11.098;2023-12-22T04:50:15;18.50;54.70
38237;DHT22;50101;49.438;11.098;2023-12-22T04:52:42;18.50;53.90
38237;DHT22;50101;49.438;11.098;2023-12-22T04:55:09;18.50;54.50
38237;DHT22;50101;49.438;11.098;2023-12-22T04:57:36;18.50;54.60
38237;DHT22;50101;49.438;11.098;2023-12-22T05:00:03;18.50;54.50
38237;DHT22;50101;49.438;11.098;2023-12-22T05:02:30;18.50;54.60
38237;DHT22;50101;49.438;11.098;2023-12-22T05:04:56;18.50;54.30
38237;DHT22;50101;49.438;11.098;2023-12-22T05:07:23;18.50;54.50
38237;DHT22;50101;49.438;11.098;2023-12-22T05:09:50;18.50;54.50
38237;DHT22;50101;49.438;11.098;2023-12-22T05:12:18;18.50;54.50
38237;DHT22;50101;49.438;11.098;2023-12-22T05:14:46;18.50;54.50
38237;DHT22;50101;49.438;11.098;2023-12-22T05:17:12;18.40;54.40
38237;DHT22;50101;49.438;11.098;2023-12-22T05:19:39;18.50;54.40
38237;DHT22;50101;49.438;11.098;2023-12-22T05:22:06;18.50;54.40
38237;DHT22;50101;49.438;11.098;2023-12-22T05:24:33;18.50;54.40
38237;DHT22;50101;49.438;11.098;2023-12-22T05:26:59;18.50;54.20
38237;DHT22;50101;49.438;11.098;2023-12-22T05:29:26;18.50;54.40
38237;DHT22;50101;49.438;11.098;2023-12-22T05:31:53;18.50;54.50
38237;DHT22;50101;49.438;11.098;2023-12-22T05:34:19;18.50;54.30
38237;DHT22;50101;49.438;11.098;2023-12-22T05:36:46;18.50;54.40
38237;DHT22;50101;49.438;11.098;2023-12-22T05:39:13;18.50;54.50
38237;DHT22;50101;49.438;11.098;2023-12-22T05:41:39;18.50;54.50
38237;DHT22;50101;49.438;11.098;2023-12-22T05:44:06;18.50;54.50
38237;DHT22;50101;49.438;11.098;2023-12-22T05:46:37;18.50;54.60
38237;DHT22;50101;49.438;11.098;2023-12-22T05:49:06;18.50;54.40
38237;DHT22;50101;49.438;11.098;2023-12-22T05:51:37;18.60;54.00
38237;DHT22;50101;49.438;11.098;2023-12-22T05:54:08;18.60;54.50
38237;DHT22;50101;49.438;11.098;2023-12-22T05:56:35;18.60;54.40
38237;DHT22;50101;49.438;11.098;2023-12-22T05:59:02;18.60;54.20
38237;DHT22;50101;49.438;11.098;2023-12-22T06:01:29;18.30;54.10
38237;DHT22;50101;49.438;11.098;2023-12-22T06:03:56;18.70;54.40
38237;DHT22;50101;49.438;11.098;2023-12-22T06:06:23;18.70;54.40
38237;DHT22;50101;49.438;11.098;2023-12-22T06:08:50;18.70;54.40
38237;DHT22;50101;49.438;11.098;2023-12-22T06:11:16;18.70;54.40
38237;DHT22;50101;49.438;11.098;2023-12-22T06:13:43;18.70;54.40
38237;DHT22;50101;49.438;11.098;2023-12-22T06:16:12;18.70;54.40
38237;DHT22;50101;49.438;11.098;2023-12-22T06:18:40;18.70;54.90
38237;DHT22;50101;49.438;11.098;2023-12-22T06:21:08;18.70;53.80
38237;DHT22;50101;49.438;11.098;2023-12-22T06:23:35;18.80;54.40
38237;DHT22;50101;49.438;11.098;2023-12-22T06:26:08;18.80;54.40
38237;DHT22;50101;49.438;11.098;2023-12-22T06:28:35;18.70;54.30
38237;DHT22;50101;49.438;11.098;2023-12-22T06:31:04;18.70;54.30
38237;DHT22;50101;49.438;11.098;2023-12-22T06:33:31;18.70;53.70
38237;DHT22;50101;49.438;11.098;2023-12-22T06:35:58;18.70;54.20
38237;DHT22;50101;49.438;11.098;2023-12-22T06:38:24;18.80;54.10
38237;DHT22;50101;49.438;11.098;2023-12-22T06:40:51;18.80;54.10
38237;DHT22;50101;49.438;11.098;2023-12-22T06:43:18;18.80;54.20
38237;DHT22;50101;49.438;11.098;2023-12-22T06:45:44;18.90;54.30
38237;DHT22;50101;49.438;11.098;2023-12-22T06:48:11;18.90;54.30
38237;DHT22;50101;49.438;11.098;2023-12-22T06:50:38;18.90;54.40
38237;DHT22;50101;49.438;11.098;2023-12-22T06:53:06;18.90;54.50
38237;DHT22;50101;49.438;11.098;2023-12-22T06:55:47;18.90;54.50
38237;DHT22;50101;49.438;11.098;2023-12-22T06:58:14;18.90;54.70
38237;DHT22;50101;49.438;11.098;2023-12-22T07:00:44;19.00;55.10
38237;DHT22;50101;49.438;11.098;2023-12-22T07:03:10;18.90;54.40
38237;DHT22;50101;49.438;11.098;2023-12-22T07:05:39;19.00;54.90
38237;DHT22;50101;49.438;11.098;2023-12-22T07:08:06;19.00;54.90
38237;DHT22;50101;49.438;11.098;2023-12-22T07:10:33;19.00;54.90
38237;DHT22;50101;49.438;11.098;2023-12-22T07:13:00;19.00;55.30
38237;DHT22;50101;49.438;11.098;2023-12-22T07:15:27;19.00;54.80
38237;DHT22;50101;49.438;11.098;2023-12-22T07:17:54;19.00;54.80
38237;DHT22;50101;49.438;11.098;2023-12-22T07:20:21;19.10;55.10
38237;DHT22;50101;49.438;11.098;2023-12-22T07:22:48;19.20;55.20
38237;DHT22;50101;49.438;11.098;2023-12-22T07:25:15;19.20;54.80
38237;DHT22;50101;49.438;11.098;2023-12-22T07:27:42;19.20;54.70
38237;DHT22;50101;49.438;11.098;2023-12-22T07:30:09;19.20;55.00
38237;DHT22;50101;49.438;11.098;2023-12-22T07:32:38;19.20;55.00
38237;DHT22;50101;49.438;11.098;2023-12-22T07:35:05;19.20;55.10
38237;DHT22;50101;49.438;11.098;2023-12-22T07:37:35;19.20;55.00
38237;DHT22;50101;49.438;11.098;2023-12-22T07:40:03;19.20;55.00
38237;DHT22;50101;49.438;11.098;2023-12-22T07:42:29;19.20;54.90
38237;DHT22;50101;49.438;11.098;2023-12-22T07:44:56;19.30;54.90
38237;DHT22;50101;49.438;11.098;2023-12-22T07:47:23;19.30;54.80
38237;DHT22;50101;49.438;11.098;2023-12-22T07:49:50;19.30;54.80
38237;DHT22;50101;49.438;11.098;2023-12-22T07:52:17;19.30;54.80
38237;DHT22;50101;49.438;11.098;2023-12-22T07:54:44;19.40;54.90
38237;DHT22;50101;49.438;11.098;2023-12-22T07:57:11;19.30;54.80
38237;DHT22;50101;49.438;11.098;2023-12-22T07:59:37;19.30;54.80
38237;DHT22;50101;49.438;11.098;2023-12-22T08:02:04;19.40;54.90
38237;DHT22;50101;49.438;11.098;2023-12-22T08:04:31;19.40;54.80
38237;DHT22;50101;49.438;11.098;2023-12-22T08:06:58;19.40;54.90
38237;DHT22;50101;49.438;11.098;2023-12-22T08:09:25;19.40;54.90
38237;DHT22;50101;49.438;11.098;2023-12-22T08:11:51;19.40;54.40
38237;DHT22;50101;49.438;11.098;2023-12-22T08:14:19;19.40;54.90
38237;DHT22;50101;49.438;11.098;2023-12-22T08:16:46;19.40;54.90
38237;DHT22;50101;49.438;11.098;2023-12-22T08:19:13;19.40;54.90
38237;DHT22;50101;49.438;11.098;2023-12-22T08:21:42;19.50;55.00
38237;DHT22;50101;49.438;11.098;2023-12-22T08:24:12;19.50;55.00
38237;DHT22;50101;49.438;11.098;2023-12-22T08:26:48;19.60;55.10
38237;DHT22;50101;49.438;11.098;2023-12-22T08:29:16;19.50;55.60
38237;DHT22;50101;49.438;11.098;2023-12-22T08:31:43;19.50;55.00
38237;DHT22;50101;49.438;11.098;2023-12-22T08:34:13;19.50;55.00
38237;DHT22;50101;49.438;11.098;2023-12-22T08:36:39;19.50;54.90
38237;DHT22;50101;49.438;11.098;2023-12-22T08:39:07;19.50;54.90
38237;DHT22;50101;49.438;11.098;2023-12-22T08:41:35;19.50;54.80
38237;DHT22;50101;49.438;11.098;2023-12-22T08:44:05;19.50;54.80
38237;DHT22;50101;49.438;11.098;2023-12-22T08:46:32;19.60;54.90
38237;DHT22;50101;49.438;11.098;2023-12-22T08:49:00;19.60;54.80
38237;DHT22;50101;49.438;11.098;2023-12-22T08:51:27;19.60;54.70
38237;DHT22;50101;49.438;11.098;2023-12-22T08:53:54;19.60;54.70
38237;DHT22;50101;49.438;11.098;2023-12-22T08:56:22;19.60;54.70
38237;DHT22;50101;49.438;11.098;2023-12-22T08:58:51;19.60;54.80
38237;DHT22;50101;49.438;11.098;2023-12-22T09:01:19;19.60;54.70
38237;DHT22;50101;49.438;11.098;2023-12-22T09:03:46;19.60;54.70
38237;DHT22;50101;49.438;11.098;2023-12-22T09:06:17;19.60;54.70
38237;DHT22;50101;49.438;11.098;2023-12-22T09:08:45;19.60;54.70
38237;DHT22;50101;49.438;11.098;2023-12-22T09:11:12;19.60;54.40
38237;DHT22;50101;49.438;11.098;2023-12-22T09:13:39;19.60;55.00
38237;DHT22;50101;49.438;11.098;2023-12-22T09:16:06;19.60;55.00
38237;DHT22;50101;49.438;11.098;2023-12-22T09:18:33;19.60;55.00
38237;DHT22;50101;49.438;11.098;2023-12-22T09:21:00;19.60;55.00
38237;DHT22;50101;49.438;11.098;2023-12-22T09:23:27;19.60;55.10
38237;DHT22;50101;49.438;11.098;2023-12-22T09:25:54;19.60;55.00
38237;DHT22;50101;49.438;11.098;2023-12-22T09:28:21;19.60;55.10
38237;DHT22;50101;49.438;11.098;2023-12-22T09:30:48;19.70;55.10
38237;DHT22;50101;49.438;11.098;2023-12-22T09:33:14;19.70;54.60
38237;DHT22;50101;49.438;11.098;2023-12-22T09:35:42;19.70;55.20
38237;DHT22;50101;49.438;11.098;2023-12-22T09:38:10;19.70;55.10
38237;DHT22;50101;49.438;11.098;2023-12-22T09:40:40;19.70;54.60
38237;DHT22;50101;49.438;11.098;2023-12-22T09:43:09;19.70;54.60
38237;DHT22;50101;49.438;11.098;2023-12-22T09:45:39;19.70;55.20
38237;DHT22;50101;49.438;11.098;2023-12-22T09:48:06;19.70;55.10
38237;DHT22;50101;49.438;11.098;2023-12-22T09:50:34;19.70;55.10
38237;DHT22;50101;49.438;11.098;2023-12-22T09:53:02;19.70;55.10
38237;DHT22;50101;49.438;11.098;2023-12-22T09:55:32;19.70;55.10
38237;DHT22;50101;49.438;11.098;2023-12-22T09:58:01;19.70;55.10
38237;DHT22;50101;49.438;11.098;2023-12-22T10:00:29;19.70;55.10
38237;DHT22;50101;49.438;11.098;2023-12-22T10:02:56;19.70;54.60
38237;DHT22;50101;49.438;11.098;2023-12-22T10:05:23;19.70;55.30
38237;DHT22;50101;49.438;11.098;2023-12-22T10:07:50;19.70;55.70
38237;DHT22;50101;49.438;11.098;2023-12-22T10:10:18;19.70;54.90
38237;DHT22;50101;49.438;11.098;2023-12-22T10:12:45;19.80;54.90
38237;DHT22;50101;49.438;11.098;2023-12-22T10:15:14;19.80;55.30
38237;DHT22;50101;49.438;11.098;2023-12-22T10:17:41;19.80;55.50
38237;DHT22;50101;49.438;11.098;2023-12-22T10:20:09;19.80;55.70
38237;DHT22;50101;49.438;11.098;2023-12-22T10:22:36;19.90;55.90
38237;DHT22;50101;49.438;11.098;2023-12-22T10:25:03;19.80;54.90
38237;DHT22;50101;49.438;11.098;2023-12-22T10:27:30;19.80;55.40
38237;DHT22;50101;49.438;11.098;2023-12-22T10:29:58;19.80;55.30
38237;DHT22;50101;49.438;11.098;2023-12-22T10:32:25;19.80;54.80
38237;DHT22;50101;49.438;11.098;2023-12-22T10:34:53;19.80;55.20
38237;DHT22;50101;49.438;11.098;2023-12-22T10:37:21;19.80;54.80
38237;DHT22;50101;49.438;11.098;2023-12-22T10:39:54;19.80;54.70
38237;DHT22;50101;49.438;11.098;2023-12-22T10:42:21;19.90;54.80
38237;DHT22;50101;49.438;11.098;2023-12-22T10:44:48;19.80;54.50
38237;DHT22;50101;49.438;11.098;2023-12-22T10:47:18;19.90;54.30
38237;DHT22;50101;49.438;11.098;2023-12-22T10:49:47;19.90;54.70
38237;DHT22;50101;49.438;11.098;2023-12-22T10:52:16;19.90;54.70
38237;DHT22;50101;49.438;11.098;2023-12-22T10:54:48;19.80;54.60
38237;DHT22;50101;49.438;11.098;2023-12-22T10:57:18;19.80;54.60
38237;DHT22;50101;49.438;11.098;2023-12-22T10:59:48;19.80;55.10
38237;DHT22;50101;49.438;11.098;2023-12-22T11:02:18;19.80;54.60
38237;DHT22;50101;49.438;11.098;2023-12-22T11:05:00;19.80;55.10
38237;DHT22;50101;49.438;11.098;2023-12-22T11:07:28;19.80;55.20
38237;DHT22;50101;49.438;11.098;2023-12-22T11:10:02;19.90;55.20
38237;DHT22;50101;49.438;11.098;2023-12-22T11:12:33;19.80;55.20
38237;DHT22;50101;49.438;11.098;2023-12-22T11:15:02;19.90;55.10
38237;DHT22;50101;49.438;11.098;2023-12-22T11:17:30;19.90;55.20
38237;DHT22;50101;49.438;11.098;2023-12-22T11:19:59;19.90;55.30
38237;DHT22;50101;49.438;11.098;2023-12-22T11:22:26;19.90;55.20
38237;DHT22;50101;49.438;11.098;2023-12-22T11:24:54;19.90;55.30
38237;DHT22;50101;49.438;11.098;2023-12-22T11:27:21;19.90;54.70
38237;DHT22;50101;49.438;11.098;2023-12-22T11:29:49;19.90;55.20
38237;DHT22;50101;49.438;11.098;2023-12-22T11:32:18;19.90;55.10
38237;DHT22;50101;49.438;11.098;2023-12-22T11:34:48;19.90;55.20
38237;DHT22;50101;49.438;11.098;2023-12-22T11:37:15;19.90;55.10
38237;DHT22;50101;49.438;11.098;2023-12-22T11:39:43;19.90;55.30
38237;DHT22;50101;49.438;11.098;2023-12-22T11:42:23;19.80;55.20
38237;DHT22;50101;49.438;11.098;2023-12-22T11:44:53;19.80;55.20
38237;DHT22;50101;49.438;11.098;2023-12-22T11:47:22;19.80;54.70
38237;DHT22;50101;49.438;11.098;2023-12-22T11:49:49;19.80;55.20
38237;DHT22;50101;49.438;11.098;2023-12-22T11:52:25;19.80;55.20
38237;DHT22;50101;49.438;11.098;2023-12-22T11:54:53;19.80;55.20
38237;DHT22;50101;49.438;11.098;2023-12-22T11:57:39;19.90;55.30
38237;DHT22;50101;49.438;11.098;2023-12-22T12:02:54;19.80;54.80
38237;DHT22;50101;49.438;11.098;2023-12-22T12:05:22;19.80;55.40
38237;DHT22;50101;49.438;11.098;2023-12-22T12:07:49;19.80;54.50
38237;DHT22;50101;49.438;11.098;2023-12-22T12:13:10;19.80;55.20
38237;DHT22;50101;49.438;11.098;2023-12-22T12:15:38;19.80;55.20
38237;DHT22;50101;49.438;11.098;2023-12-22T12:18:05;19.80;55.20
38237;DHT22;50101;49.438;11.098;2023-12-22T12:20:33;19.80;55.20
38237;DHT22;50101;49.438;11.098;2023-12-22T12:23:03;19.70;54.60
38237;DHT22;50101;49.438;11.098;2023-12-22T12:25:32;19.80;55.20
38237;DHT22;50101;49.438;11.098;2023-12-22T12:28:04;19.80;55.20
38237;DHT22;50101;49.438;11.098;2023-12-22T12:30:33;19.80;55.20
38237;DHT22;50101;49.438;11.098;2023-12-22T12:33:09;19.80;55.20
38237;DHT22;50101;49.438;11.098;2023-12-22T12:35:38;19.80;55.20
38237;DHT22;50101;49.438;11.098;2023-12-22T12:38:11;19.80;55.10
38237;DHT22;50101;49.438;11.098;2023-12-22T12:40:39;19.80;55.10
38237;DHT22;50101;49.438;11.098;2023-12-22T12:43:06;19.80;54.40
38237;DHT22;50101;49.438;11.098;2023-12-22T12:45:33;19.80;54.70
38237;DHT22;50101;49.438;11.098;2023-12-22T12:48:03;19.80;54.80
38237;DHT22;50101;49.438;11.098;2023-12-22T12:50:32;19.70;54.70
38237;DHT22;50101;49.438;11.098;2023-12-22T12:53:00;19.80;54.80
38237;DHT22;50101;49.438;11.098;2023-12-22T12:55:27;19.70;54.60
38237;DHT22;50101;49.438;11.098;2023-12-22T12:57:55;19.70;54.70
38237;DHT22;50101;49.438;11.098;2023-12-22T13:02:56;19.80;54.90
38237;DHT22;50101;49.438;11.098;2023-12-22T13:05:23;19.80;54.80
38237;DHT22;50101;49.438;11.098;2023-12-22T13:07:50;19.80;54.90
38237;DHT22;50101;49.438;11.098;2023-12-22T13:10:24;19.80;54.90
38237;DHT22;50101;49.438;11.098;2023-12-22T13:12:52;19.80;54.80
38237;DHT22;50101;49.438;11.098;2023-12-22T13:15:21;19.80;54.90
38237;DHT22;50101;49.438;11.098;2023-12-22T13:17:48;19.80;54.90
38237;DHT22;50101;49.438;11.098;2023-12-22T13:20:16;19.80;54.90
38237;DHT22;50101;49.438;11.098;2023-12-22T13:22:43;19.80;55.00
38237;DHT22;50101;49.438;11.098;2023-12-22T13:25:10;19.80;54.90
38237;DHT22;50101;49.438;11.098;2023-12-22T13:27:48;19.80;54.90
38237;DHT22;50101;49.438;11.098;2023-12-22T13:30:34;19.80;55.60
38237;DHT22;50101;49.438;11.098;2023-12-22T13:33:07;19.80;55.00
38237;DHT22;50101;49.438;11.098;2023-12-22T13:35:35;19.80;55.00
38237;DHT22;50101;49.438;11.098;2023-12-22T13:38:07;19.80;55.20
38237;DHT22;50101;49.438;11.098;2023-12-22T13:40:35;19.80;54.80
38237;DHT22;50101;49.438;11.098;2023-12-22T13:43:05;19.70;54.40
38237;DHT22;50101;49.438;11.098;2023-12-22T13:45:33;19.80;54.90
38237;DHT22;50101;49.438;11.098;2023-12-22T13:48:00;19.70;54.90
38237;DHT22;50101;49.438;11.098;2023-12-22T13:50:27;19.80;54.90
38237;DHT22;50101;49.438;11.098;2023-12-22T13:52:54;19.70;54.80
38237;DHT22;50101;49.438;11.098;2023-12-22T13:55:21;19.70;55.20
38237;DHT22;50101;49.438;11.098;2023-12-22T13:57:59;19.80;55.00
38237;DHT22;50101;49.438;11.098;2023-12-22T14:00:30;19.80;54.50
38237;DHT22;50101;49.438;11.098;2023-12-22T14:02:58;19.80;54.60
38237;DHT22;50101;49.438;11.098;2023-12-22T14:05:25;19.80;55.10
38237;DHT22;50101;49.438;11.098;2023-12-22T14:07:57;19.80;55.10
38237;DHT22;50101;49.438;11.098;2023-12-22T14:10:24;19.80;55.20
38237;DHT22;50101;49.438;11.098;2023-12-22T14:12:51;19.80;55.80
38237;DHT22;50101;49.438;11.098;2023-12-22T14:15:18;19.80;55.20
38237;DHT22;50101;49.438;11.098;2023-12-22T14:17:44;19.70;55.10
38237;DHT22;50101;49.438;11.098;2023-12-22T14:20:11;19.70;55.10
38237;DHT22;50101;49.438;11.098;2023-12-22T14:22:39;19.80;55.00
38237;DHT22;50101;49.438;11.098;2023-12-22T14:25:06;19.80;55.00
38237;DHT22;50101;49.438;11.098;2023-12-22T14:27:33;19.80;55.10
38237;DHT22;50101;49.438;11.098;2023-12-22T14:30:00;19.80;55.00
38237;DHT22;50101;49.438;11.098;2023-12-22T14:32:26;19.80;54.90
38237;DHT22;50101;49.438;11.098;2023-12-22T14:34:53;19.70;55.30
38237;DHT22;50101;49.438;11.098;2023-12-22T14:37:20;19.70;54.60
38237;DHT22;50101;49.438;11.098;2023-12-22T14:39:48;19.70;55.10
38237;DHT22;50101;49.438;11.098;2023-12-22T14:42:14;19.70;55.10
38237;DHT22;50101;49.438;11.098;2023-12-22T14:44:41;19.70;55.20
38237;DHT22;50101;49.438;11.098;2023-12-22T14:47:08;19.70;55.20
38237;DHT22;50101;49.438;11.098;2023-12-22T14:49:39;19.70;55.10
38237;DHT22;50101;49.438;11.098;2023-12-22T14:52:06;19.60;54.50
38237;DHT22;50101;49.438;11.098;2023-12-22T14:54:33;19.60;55.00
38237;DHT22;50101;49.438;11.098;2023-12-22T14:57:00;19.60;54.90
38237;DHT22;50101;49.438;11.098;2023-12-22T14:59:27;19.60;54.90
38237;DHT22;50101;49.438;11.098;2023-12-22T15:01:54;19.60;55.00
38237;DHT22;50101;49.438;11.098;2023-12-22T15:04:21;19.60;54.80
38237;DHT22;50101;49.438;11.098;2023-12-22T15:06:49;19.60;54.90
38237;DHT22;50101;49.438;11.098;2023-12-22T15:09:26;19.60;54.90
38237;DHT22;50101;49.438;11.098;2023-12-22T15:11:53;19.50;54.30
38237;DHT22;50101;49.438;11.098;2023-12-22T15:14:21;19.60;54.90
38237;DHT22;50101;49.438;11.098;2023-12-22T15:16:48;19.60;54.80
38237;DHT22;50101;49.438;11.098;2023-12-22T15:19:18;19.50;54.80
38237;DHT22;50101;49.438;11.098;2023-12-22T15:21:45;19.50;54.20
38237;DHT22;50101;49.438;11.098;2023-12-22T15:24:11;19.50;54.70
38237;DHT22;50101;49.438;11.098;2023-12-22T15:26:38;19.50;54.60
38237;DHT22;50101;49.438;11.098;2023-12-22T15:29:05;19.60;54.70